Time;durP1;ratioP1;P1;durP2;ratioP2;P2;SDS_P1;SDS_P2;PMS_P1;PMS_P2;Temp;Humidity;BMP_temperature;BMP_pressure;BME280_temperature;BME280_humidity;BME280_pressure;Samples;Min_cycle;Max_cycle;Signal;HPM_P1;HPM_P2
2022/12/19 00:01:31;;;;;;;88.57;29.75;;;;;;;;;;4990787;28;20037;-58
2022/12/19 00:04:01;;;;;;;86.35;30.05;;;;;;;;;;4993252;28;20042;-59
2022/12/19 00:06:26;;;;;;;102.38;32.20;;;;;;;;;;4989936;28;20121;-59
2022/12/19 00:08:52;;;;;;;90.03;28.40;;;;;;;;;;4987959;28;20033;-58
2022/12/19 00:11:18;;;;;;;98.78;31.45;;;;;;;;;;4996402;28;20026;-59
2022/12/19 00:13:44;;;;;;;84.78;27.90;;;;;;;;;;4980922;28;20034;-59
2022/12/19 00:16:14;;;;;;;93.85;30.33;;;;;;;;;;4994735;28;20476;-58
2022/12/19 00:18:40;;;;;;;93.28;28.33;;;;;;;;;;4965038;28;20503;-58
2022/12/19 00:21:07;;;;;;;88.55;31.35;;;;;;;;;;4996424;28;20100;-58
2022/12/19 00:23:33;;;;;;;117.85;35.42;;;;;;;;;;4998068;28;20730;-59
2022/12/19 00:26:17;;;;;;;90.68;30.52;;;;;;;;;;4995943;28;20033;-58
2022/12/19 00:28:45;;;;;;;88.67;29.63;;;;;;;;;;4979363;28;20034;-58
2022/12/19 00:31:11;;;;;;;81.75;26.33;;;;;;;;;;4997983;28;20523;-59
2022/12/19 00:33:36;;;;;;;79.47;25.65;;;;;;;;;;4981234;28;20022;-59
2022/12/19 00:36:03;;;;;;;77.40;26.20;;;;;;;;;;4980441;28;20117;-57
2022/12/19 00:38:30;;;;;;;79.38;27.05;;;;;;;;;;4983220;28;20561;-58
2022/12/19 00:41:05;;;;;;;84.85;26.60;;;;;;;;;;4996056;28;20038;-58
2022/12/19 00:43:30;;;;;;;73.97;25.40;;;;;;;;;;4979427;28;20145;-59
2022/12/19 00:45:56;;;;;;;90.57;28.85;;;;;;;;;;4977554;28;20587;-56
2022/12/19 00:48:22;;;;;;;93.88;27.65;;;;;;;;;;4988757;28;20038;-58
2022/12/19 00:50:47;;;;;;;92.97;29.60;;;;;;;;;;4979881;28;20034;-56
2022/12/19 00:53:13;;;;;;;91.88;29.77;;;;;;;;;;4997759;28;20041;-58
2022/12/19 00:55:38;;;;;;;96.28;31.05;;;;;;;;;;4983543;28;20129;-57
2022/12/19 00:58:03;;;;;;;92.82;30.42;;;;;;;;;;4996482;28;20030;-55
2022/12/19 01:00:29;;;;;;;86.88;30.85;;;;;;;;;;4993841;28;20022;-56
2022/12/19 01:02:55;;;;;;;97.20;30.90;;;;;;;;;;4967080;28;20045;-58
2022/12/19 01:05:20;;;;;;;98.22;32.67;;;;;;;;;;4991564;28;20065;-57
2022/12/19 01:07:47;;;;;;;100.05;32.38;;;;;;;;;;4994559;28;20029;-57
2022/12/19 01:10:12;;;;;;;96.03;32.15;;;;;;;;;;4985985;28;20494;-57
2022/12/19 01:12:47;;;;;;;99.97;30.88;;;;;;;;;;4995456;28;20034;-56
2022/12/19 01:15:16;;;;;;;91.65;32.50;;;;;;;;;;4980440;28;20038;-57
2022/12/19 01:17:42;;;;;;;101.55;30.30;;;;;;;;;;4986337;28;20034;-58
2022/12/19 01:20:07;;;;;;;90.38;31.25;;;;;;;;;;4980527;28;20497;-57
2022/12/19 01:22:34;;;;;;;94.63;30.13;;;;;;;;;;4981295;28;20034;-56
2022/12/19 01:25:00;;;;;;;90.32;30.77;;;;;;;;;;4991679;28;20053;-58
2022/12/19 01:27:25;;;;;;;92.82;29.80;;;;;;;;;;4978404;28;20395;-56
2022/12/19 01:29:50;;;;;;;87.47;31.48;;;;;;;;;;4996155;28;20618;-58
2022/12/19 01:32:16;;;;;;;86.95;30.67;;;;;;;;;;4991341;28;20049;-58
2022/12/19 01:34:41;;;;;;;97.82;30.60;;;;;;;;;;4995199;28;20034;-56
2022/12/19 01:37:06;;;;;;;91.43;32.45;;;;;;;;;;4979448;28;20638;-57
2022/12/19 01:39:32;;;;;;;102.97;31.88;;;;;;;;;;4982439;28;20061;-58
2022/12/19 01:41:57;;;;;;;99.30;33.63;;;;;;;;;;4995717;28;20145;-58
2022/12/19 01:44:23;;;;;;;95.45;31.73;;;;;;;;;;4995087;28;20033;-58
2022/12/19 01:46:50;;;;;;;98.80;32.40;;;;;;;;;;4996720;28;20032;-58
2022/12/19 01:49:18;;;;;;;103.47;32.63;;;;;;;;;;4993318;28;20081;-58
2022/12/19 01:51:45;;;;;;;97.85;33.05;;;;;;;;;;4996472;28;20548;-58
2022/12/19 01:54:14;;;;;;;87.85;28.77;;;;;;;;;;4994649;28;20291;-58
2022/12/19 01:56:43;;;;;;;93.22;29.27;;;;;;;;;;4993762;28;20120;-58
2022/12/19 01:59:15;;;;;;;102.25;30.08;;;;;;;;;;4985172;28;20038;-57
2022/12/19 02:01:44;;;;;;;96.13;30.25;;;;;;;;;;4994292;28;20287;-58
2022/12/19 02:04:10;;;;;;;97.20;32.60;;;;;;;;;;4980603;28;20037;-59
2022/12/19 02:06:38;;;;;;;106.63;29.93;;;;;;;;;;4990015;28;20157;-58
2022/12/19 02:09:03;;;;;;;93.45;30.45;;;;;;;;;;4996186;28;20037;-58
2022/12/19 02:11:31;;;;;;;88.65;31.35;;;;;;;;;;4989911;28;20026;-58
2022/12/19 02:13:57;;;;;;;96.05;31.02;;;;;;;;;;4993061;28;20038;-59
2022/12/19 02:16:32;;;;;;;98.75;31.80;;;;;;;;;;4994889;28;20040;-58
2022/12/19 02:19:13;;;;;;;85.15;30.25;;;;;;;;;;4976708;28;20037;-58
2022/12/19 02:21:39;;;;;;;95.53;30.40;;;;;;;;;;4980662;28;20037;-59
2022/12/19 02:24:23;;;;;;;96.30;31.02;;;;;;;;;;4979769;28;20042;-57
2022/12/19 02:26:52;;;;;;;92.55;31.13;;;;;;;;;;4984468;28;20480;-57
2022/12/19 02:29:30;;;;;;;95.45;31.90;;;;;;;;;;4983680;28;20161;-56
2022/12/19 02:32:17;;;;;;;83.43;27.70;;;;;;;;;;4980307;28;20037;-57
2022/12/19 02:34:46;;;;;;;85.65;28.95;;;;;;;;;;4968620;28;20053;-58
2022/12/19 02:37:24;;;;;;;93.40;30.67;;;;;;;;;;4962564;28;20026;-58
2022/12/19 02:39:54;;;;;;;83.55;29.48;;;;;;;;;;4982360;28;20042;-58
2022/12/19 02:42:24;;;;;;;89.05;31.13;;;;;;;;;;4977740;28;20092;-58
2022/12/19 02:44:50;;;;;;;97.95;34.30;;;;;;;;;;4988472;28;20038;-61
2022/12/19 02:47:15;;;;;;;111.93;37.15;;;;;;;;;;4982846;28;20030;-58
2022/12/19 02:49:41;;;;;;;98.45;33.90;;;;;;;;;;4990137;28;20049;-57
2022/12/19 02:52:14;;;;;;;92.68;30.65;;;;;;;;;;4977033;28;20030;-57
2022/12/19 02:54:39;;;;;;;105.65;33.13;;;;;;;;;;4989726;28;20053;-59
2022/12/19 02:57:17;;;;;;;86.13;30.45;;;;;;;;;;4992568;28;20038;-56
2022/12/19 02:59:58;;;;;;;95.55;31.67;;;;;;;;;;4991807;28;20431;-58
2022/12/19 03:02:42;;;;;;;98.05;30.38;;;;;;;;;;4978752;28;20053;-59
2022/12/19 03:05:13;;;;;;;86.55;28.05;;;;;;;;;;4974767;28;20551;-58
2022/12/19 03:08:03;;;;;;;90.13;29.55;;;;;;;;;;4991949;28;20491;-58
2022/12/19 03:10:28;;;;;;;88.90;30.40;;;;;;;;;;4988741;28;20061;-58
2022/12/19 03:12:58;;;;;;;80.95;29.80;;;;;;;;;;4978710;28;20049;-58
2022/12/19 03:15:24;;;;;;;78.35;29.52;;;;;;;;;;4964567;28;20034;-59
2022/12/19 03:17:54;;;;;;;90.88;29.75;;;;;;;;;;4990931;28;20476;-59
2022/12/19 03:20:35;;;;;;;81.72;29.13;;;;;;;;;;4988565;28;20030;-58
2022/12/19 03:23:00;;;;;;;87.63;29.00;;;;;;;;;;4994889;28;20034;-58
2022/12/19 03:25:27;;;;;;;73.90;26.92;;;;;;;;;;4980053;28;20045;-58
2022/12/19 03:27:53;;;;;;;;;;;;;;;;;;4992082;28;20185;-58
2022/12/19 03:30:18;;;;;;;85.93;28.40;;;;;;;;;;4978657;28;20338;-59
2022/12/19 03:32:45;;;;;;;79.30;26.30;;;;;;;;;;4994004;28;20050;-58
2022/12/19 03:35:14;;;;;;;71.53;24.70;;;;;;;;;;4955530;28;1087448;-57
2022/12/19 03:37:40;;;;;;;74.63;26.38;;;;;;;;;;4994811;28;20034;-59
2022/12/19 03:40:11;;;;;;;70.32;23.80;;;;;;;;;;4995640;28;20084;-59
2022/12/19 03:45:27;;;;;;;61.25;21.70;;;;;;;;;;4996127;28;20499;-59
2022/12/19 03:47:57;;;;;;;60.65;21.52;;;;;;;;;;4993536;28;20046;-59
2022/12/19 03:50:23;;;;;;;70.93;25.55;;;;;;;;;;4998213;28;20534;-59
2022/12/19 03:52:57;;;;;;;60.67;22.38;;;;;;;;;;4994237;28;20053;-59
2022/12/19 03:55:39;;;;;;;77.13;23.58;;;;;;;;;;4986144;28;20053;-59
2022/12/19 03:58:06;;;;;;;71.50;22.65;;;;;;;;;;4997221;28;20037;-58
2022/12/19 04:00:32;;;;;;;;;;;;;;;;;;4998682;28;20026;-59
2022/12/19 04:02:57;;;;;;;63.10;22.90;;;;;;;;;;4996161;28;19914;-59
2022/12/19 04:05:24;;;;;;;70.13;23.60;;;;;;;;;;4997956;28;20286;-59
2022/12/19 04:07:51;;;;;;;74.72;24.17;;;;;;;;;;4996851;28;20030;-58
2022/12/19 04:10:18;;;;;;;66.33;24.27;;;;;;;;;;4996567;28;20072;-59
2022/12/19 04:12:49;;;;;;;71.82;25.15;;;;;;;;;;4994364;28;20038;-59
2022/12/19 04:15:15;;;;;;;70.50;24.42;;;;;;;;;;4995458;28;20042;-58
2022/12/19 04:17:46;;;;;;;76.47;24.77;;;;;;;;;;4995806;28;20084;-58
2022/12/19 04:20:13;;;;;;;77.07;25.23;;;;;;;;;;4997635;28;20060;-59
2022/12/19 04:22:41;;;;;;;75.47;25.00;;;;;;;;;;4997621;28;20034;-59
2022/12/19 04:25:12;;;;;;;68.50;24.65;;;;;;;;;;4996046;28;20124;-58
2022/12/19 04:27:39;;;;;;;78.30;27.55;;;;;;;;;;4998792;28;20038;-58
2022/12/19 04:30:07;;;;;;;;;;;;;;;;;;4996026;28;20029;-59
2022/12/19 04:32:34;;;;;;;77.32;25.52;;;;;;;;;;4995633;28;19922;-58
2022/12/19 04:35:00;;;;;;;83.93;26.73;;;;;;;;;;4994887;28;20120;-59
2022/12/19 04:37:25;;;;;;;74.43;25.33;;;;;;;;;;4994770;28;20030;-58
2022/12/19 04:39:50;;;;;;;80.20;26.92;;;;;;;;;;4996165;28;20599;-58
2022/12/19 04:42:16;;;;;;;69.38;25.25;;;;;;;;;;4986736;28;20081;-58
2022/12/19 04:44:41;;;;;;;69.28;24.00;;;;;;;;;;4995974;28;20037;-58
2022/12/19 04:47:06;;;;;;;75.53;27.10;;;;;;;;;;4995684;28;20034;-58
2022/12/19 04:49:32;;;;;;;71.50;25.13;;;;;;;;;;4985083;28;20045;-58
2022/12/19 04:51:57;;;;;;;78.35;25.15;;;;;;;;;;4981612;28;20546;-58
2022/12/19 04:54:22;;;;;;;71.90;22.73;;;;;;;;;;4995914;28;20432;-59
2022/12/19 04:56:48;;;;;;;74.85;24.77;;;;;;;;;;4984403;28;20544;-59
2022/12/19 04:59:13;;;;;;;66.40;23.15;;;;;;;;;;4995274;28;20628;-59
2022/12/19 05:01:38;;;;;;;75.15;25.58;;;;;;;;;;4996593;28;20622;-59
2022/12/19 05:04:04;;;;;;;63.40;22.80;;;;;;;;;;4985304;28;20046;-58
2022/12/19 05:06:29;;;;;;;70.72;24.05;;;;;;;;;;4996282;28;20033;-59
2022/12/19 05:08:54;;;;;;;66.78;25.48;;;;;;;;;;4998431;28;20042;-59
2022/12/19 05:11:20;;;;;;;69.00;23.25;;;;;;;;;;4997356;28;20063;-59
2022/12/19 05:13:45;;;;;;;68.55;25.80;;;;;;;;;;4994418;28;20068;-59
2022/12/19 05:16:11;;;;;;;75.93;25.92;;;;;;;;;;4997277;28;20034;-59
2022/12/19 05:18:37;;;;;;;70.72;23.95;;;;;;;;;;4992898;28;20077;-59
2022/12/19 05:21:02;;;;;;;74.55;24.17;;;;;;;;;;4993534;28;20112;-59
2022/12/19 05:23:28;;;;;;;69.45;24.48;;;;;;;;;;4994709;28;20029;-59
2022/12/19 05:25:56;;;;;;;74.75;26.52;;;;;;;;;;4995591;28;20054;-59
2022/12/19 05:28:21;;;;;;;73.90;25.90;;;;;;;;;;4996177;28;20124;-58
2022/12/19 05:30:46;;;;;;;71.78;24.48;;;;;;;;;;4997187;28;20117;-59
2022/12/19 05:33:12;;;;;;;70.70;24.95;;;;;;;;;;4997285;28;20130;-58
2022/12/19 05:35:37;;;;;;;77.63;25.77;;;;;;;;;;4978976;28;20048;-58
2022/12/19 05:38:02;;;;;;;77.70;27.83;;;;;;;;;;4994719;28;20032;-59
2022/12/19 05:40:28;;;;;;;78.05;27.30;;;;;;;;;;4992424;28;20033;-59
2022/12/19 05:42:53;;;;;;;75.00;26.00;;;;;;;;;;4985842;28;20552;-60
2022/12/19 05:45:18;;;;;;;80.68;25.08;;;;;;;;;;4984831;28;20038;-59
2022/12/19 05:47:45;;;;;;;72.88;25.20;;;;;;;;;;4978395;28;20037;-58
2022/12/19 05:50:11;;;;;;;67.38;24.13;;;;;;;;;;4994155;28;20473;-59
2022/12/19 05:52:36;;;;;;;73.32;26.58;;;;;;;;;;4995271;28;20061;-59
2022/12/19 05:55:02;;;;;;;82.35;33.45;;;;;;;;;;4985739;28;20049;-59
2022/12/19 05:57:27;;;;;;;78.65;26.88;;;;;;;;;;4980443;28;20029;-59
2022/12/19 05:59:52;;;;;;;76.88;26.27;;;;;;;;;;4963588;28;20668;-59
2022/12/19 06:02:18;;;;;;;71.90;24.65;;;;;;;;;;4979442;28;20084;-58
2022/12/19 06:04:43;;;;;;;71.97;26.25;;;;;;;;;;4979255;28;20053;-58
2022/12/19 06:07:09;;;;;;;73.28;27.27;;;;;;;;;;4978600;28;20942;-59
2022/12/19 06:09:34;;;;;;;76.13;27.52;;;;;;;;;;4977850;28;20057;-59
2022/12/19 06:11:59;;;;;;;70.95;26.45;;;;;;;;;;4985810;28;20034;-58
2022/12/19 06:14:25;;;;;;;85.72;30.02;;;;;;;;;;4978009;28;20046;-59
2022/12/19 06:16:50;;;;;;;76.25;27.83;;;;;;;;;;4993695;28;21624;-60
2022/12/19 06:19:19;;;;;;;81.40;28.98;;;;;;;;;;4992674;28;21758;-59
2022/12/19 06:21:44;;;;;;;87.50;28.60;;;;;;;;;;4993432;28;20030;-62
2022/12/19 06:24:09;;;;;;;79.22;29.02;;;;;;;;;;4993689;28;20515;-59
2022/12/19 06:26:35;;;;;;;71.78;27.08;;;;;;;;;;4978874;28;20038;-59
2022/12/19 06:29:00;;;;;;;80.32;29.15;;;;;;;;;;4995089;28;20037;-59
2022/12/19 06:31:26;;;;;;;108.47;34.20;;;;;;;;;;4993285;28;20026;-59
2022/12/19 06:33:51;;;;;;;182.05;50.33;;;;;;;;;;4993095;28;20141;-60
2022/12/19 06:36:21;;;;;;;237.93;56.80;;;;;;;;;;4994377;28;20142;-59
2022/12/19 06:38:47;;;;;;;150.35;44.33;;;;;;;;;;4994991;28;20037;-59
2022/12/19 06:43:58;;;;;;;189.13;45.10;;;;;;;;;;4979991;28;20022;-59
2022/12/19 06:46:23;;;;;;;145.80;42.95;;;;;;;;;;4994819;28;20029;-59
2022/12/19 06:48:48;;;;;;;176.32;46.45;;;;;;;;;;4983188;28;20116;-59
2022/12/19 06:51:14;;;;;;;149.10;41.20;;;;;;;;;;4992929;28;20034;-58
2022/12/19 06:53:39;;;;;;;97.65;31.30;;;;;;;;;;4981296;28;20407;-58
2022/12/19 06:56:05;;;;;;;107.10;32.53;;;;;;;;;;4994159;28;20057;-58
2022/12/19 06:58:31;;;;;;;68.47;25.90;;;;;;;;;;4992537;28;20102;-58
2022/12/19 07:00:57;;;;;;;72.93;26.33;;;;;;;;;;4997964;28;20048;-58
2022/12/19 07:03:25;;;;;;;69.97;25.20;;;;;;;;;;4997348;28;20067;-58
2022/12/19 07:05:51;;;;;;;72.50;25.75;;;;;;;;;;4997653;28;20463;-58
2022/12/19 07:08:16;;;;;;;67.00;25.45;;;;;;;;;;4980101;28;20026;-58
2022/12/19 07:10:41;;;;;;;72.78;26.67;;;;;;;;;;4998846;28;20392;-58
2022/12/19 07:13:07;;;;;;;79.47;26.58;;;;;;;;;;4993079;28;20042;-57
2022/12/19 07:15:33;;;;;;;69.15;26.88;;;;;;;;;;4982109;28;20532;-59
2022/12/19 07:17:59;;;;;;;69.55;24.88;;;;;;;;;;4990398;28;20057;-59
2022/12/19 07:20:25;;;;;;;63.33;24.88;;;;;;;;;;4993149;28;20027;-59
2022/12/19 07:22:51;;;;;;;66.90;24.73;;;;;;;;;;4994728;28;20128;-58
2022/12/19 07:25:16;;;;;;;74.72;26.15;;;;;;;;;;4990695;28;20168;-58
2022/12/19 07:27:42;;;;;;;74.50;26.38;;;;;;;;;;5001089;28;20108;-57
2022/12/19 07:30:07;;;;;;;75.75;27.75;;;;;;;;;;5001753;28;20056;-58
2022/12/19 07:32:33;;;;;;;85.10;28.23;;;;;;;;;;4975328;28;20033;-59
2022/12/19 07:34:58;;;;;;;82.75;29.52;;;;;;;;;;4994278;28;20089;-59
2022/12/19 07:37:24;;;;;;;75.00;26.35;;;;;;;;;;4977689;28;20034;-58
2022/12/19 07:39:49;;;;;;;81.70;27.05;;;;;;;;;;4990927;28;20229;-59
2022/12/19 07:42:14;;;;;;;67.72;24.85;;;;;;;;;;4995468;28;20123;-58
2022/12/19 07:44:40;;;;;;;62.75;24.30;;;;;;;;;;4979992;28;20412;-59
2022/12/19 07:47:08;;;;;;;71.13;24.95;;;;;;;;;;4996856;28;20096;-59
2022/12/19 07:49:33;;;;;;;80.25;27.85;;;;;;;;;;4996187;28;20026;-59
2022/12/19 07:51:59;;;;;;;80.30;27.98;;;;;;;;;;4979701;28;20504;-59
2022/12/19 07:54:24;;;;;;;81.18;30.02;;;;;;;;;;4995068;28;20041;-59
2022/12/19 07:56:49;;;;;;;73.47;27.08;;;;;;;;;;4993943;28;20121;-58
2022/12/19 07:59:15;;;;;;;74.07;26.25;;;;;;;;;;4995459;28;20244;-59
2022/12/19 08:01:40;;;;;;;70.60;25.92;;;;;;;;;;4996003;28;20097;-60
2022/12/19 08:04:05;;;;;;;67.15;26.15;;;;;;;;;;4990766;28;20034;-59
2022/12/19 08:06:31;;;;;;;72.50;26.25;;;;;;;;;;4993108;28;20117;-59
2022/12/19 08:08:56;;;;;;;77.38;26.80;;;;;;;;;;4995276;28;20030;-59
2022/12/19 08:11:25;;;;;;;79.60;28.55;;;;;;;;;;4996551;28;20030;-59
2022/12/19 08:13:51;;;;;;;69.32;25.67;;;;;;;;;;4990081;28;20030;-59
2022/12/19 08:16:17;;;;;;;68.53;27.63;;;;;;;;;;4989960;28;20115;-59
2022/12/19 08:18:42;;;;;;;90.15;31.80;;;;;;;;;;4992727;28;20030;-58
2022/12/19 08:21:08;;;;;;;81.32;29.77;;;;;;;;;;4989320;28;20497;-59
2022/12/19 08:23:33;;;;;;;103.47;33.67;;;;;;;;;;4993240;28;20030;-59
2022/12/19 08:26:00;;;;;;;99.32;33.38;;;;;;;;;;4989436;28;20044;-59
2022/12/19 08:28:26;;;;;;;88.13;30.63;;;;;;;;;;4995117;28;20118;-59
2022/12/19 08:30:51;;;;;;;73.75;27.88;;;;;;;;;;4980991;28;20105;-59
2022/12/19 08:33:17;;;;;;;84.80;28.67;;;;;;;;;;4996377;28;20036;-59
2022/12/19 08:35:42;;;;;;;79.95;28.33;;;;;;;;;;4996669;28;20052;-59
2022/12/19 08:38:07;;;;;;;80.80;28.52;;;;;;;;;;4966715;28;20040;-58
2022/12/19 08:40:33;;;;;;;74.78;28.80;;;;;;;;;;4977114;28;20133;-59
2022/12/19 08:42:58;;;;;;;70.43;27.70;;;;;;;;;;4982052;28;20037;-60
2022/12/19 08:45:23;;;;;;;69.55;27.63;;;;;;;;;;4977620;28;20038;-65
2022/12/19 08:47:49;;;;;;;76.72;27.65;;;;;;;;;;4994228;28;20041;-60
2022/12/19 08:50:14;;;;;;;72.68;28.70;;;;;;;;;;4980424;28;20126;-60
2022/12/19 08:52:40;;;;;;;76.10;27.85;;;;;;;;;;4996795;28;20251;-60
2022/12/19 08:55:05;;;;;;;75.00;28.67;;;;;;;;;;4994615;28;20033;-59
2022/12/19 08:57:31;;;;;;;68.50;28.17;;;;;;;;;;4982733;28;20032;-60
2022/12/19 08:59:56;;;;;;;73.93;28.23;;;;;;;;;;4990746;28;20030;-62
2022/12/19 09:02:23;;;;;;;70.28;30.30;;;;;;;;;;4978671;28;20038;-59
2022/12/19 09:04:48;;;;;;;76.67;29.73;;;;;;;;;;4993964;28;20097;-59
2022/12/19 09:07:13;;;;;;;78.15;30.85;;;;;;;;;;4994494;28;20276;-60
2022/12/19 09:09:39;;;;;;;71.90;29.23;;;;;;;;;;4993990;28;20722;-59
2022/12/19 09:12:04;;;;;;;74.57;28.25;;;;;;;;;;4995519;28;20108;-61
2022/12/19 09:14:33;;;;;;;70.53;27.42;;;;;;;;;;4998486;28;20029;-60
2022/12/19 09:16:59;;;;;;;73.57;29.83;;;;;;;;;;4996522;28;20520;-60
2022/12/19 09:19:24;;;;;;;69.22;28.45;;;;;;;;;;4996247;28;20044;-60
2022/12/19 09:21:50;;;;;;;70.50;28.90;;;;;;;;;;4991736;28;20030;-60
2022/12/19 09:24:15;;;;;;;69.70;29.85;;;;;;;;;;4992297;28;20040;-60
2022/12/19 09:26:41;;;;;;;80.82;32.85;;;;;;;;;;4993137;28;20037;-60
2022/12/19 09:29:07;;;;;;;73.18;30.13;;;;;;;;;;4996483;28;20038;-60
2022/12/19 09:31:32;;;;;;;70.40;30.92;;;;;;;;;;4992615;28;20046;-60
2022/12/19 09:33:58;;;;;;;68.25;29.10;;;;;;;;;;4995529;28;20026;-60
2022/12/19 09:36:23;;;;;;;67.95;28.20;;;;;;;;;;4975405;28;20029;-59
2022/12/19 09:38:49;;;;;;;72.63;29.25;;;;;;;;;;4981671;28;20033;-60
2022/12/19 09:41:15;;;;;;;69.35;29.25;;;;;;;;;;4993950;28;20113;-59
2022/12/19 09:43:59;;;;;;;78.85;30.40;;;;;;;;;;4993513;28;20187;-60
2022/12/19 09:46:42;;;;;;;79.57;32.75;;;;;;;;;;4992935;28;20034;-59
2022/12/19 09:49:12;;;;;;;80.35;31.83;;;;;;;;;;4982662;28;20041;-60
2022/12/19 09:51:59;;;;;;;78.03;32.97;;;;;;;;;;4992621;28;20186;-59
2022/12/19 09:54:34;;;;;;;89.30;35.03;;;;;;;;;;4984043;28;20504;-60
2022/12/19 09:57:01;;;;;;;68.65;29.67;;;;;;;;;;4993747;28;20041;-60
2022/12/19 09:59:42;;;;;;;57.08;25.67;;;;;;;;;;4990137;28;20033;-60
2022/12/19 10:02:19;;;;;;;57.35;23.75;;;;;;;;;;4994463;28;20038;-58
2022/12/19 10:04:49;;;;;;;63.95;27.58;;;;;;;;;;4991990;28;20034;-58
2022/12/19 10:07:16;;;;;;;72.38;28.17;;;;;;;;;;4992405;28;20037;-59
2022/12/19 10:09:41;;;;;;;71.28;28.95;;;;;;;;;;4994474;28;20088;-59
2022/12/19 10:12:26;;;;;;;71.75;26.45;;;;;;;;;;4993799;28;20400;-59
2022/12/19 10:14:56;;;;;;;63.25;26.67;;;;;;;;;;4994254;28;20050;-59
2022/12/19 10:17:29;;;;;;;77.85;30.95;;;;;;;;;;4993605;28;20030;-59
2022/12/19 10:19:57;;;;;;;68.65;27.15;;;;;;;;;;4996098;28;20022;-59
2022/12/19 10:22:22;;;;;;;70.38;28.63;;;;;;;;;;4994608;28;20042;-60
2022/12/19 10:24:53;;;;;;;61.58;25.88;;;;;;;;;;4992005;28;20045;-59
2022/12/19 10:27:19;;;;;;;53.50;23.17;;;;;;;;;;4992294;28;20129;-59
2022/12/19 10:29:52;;;;;;;53.55;23.20;;;;;;;;;;4990793;28;20038;-59
2022/12/19 10:32:26;;;;;;;59.30;23.35;;;;;;;;;;4992602;28;20037;-58
2022/12/19 10:34:52;;;;;;;57.97;24.95;;;;;;;;;;4989211;28;20037;-60
2022/12/19 10:37:23;;;;;;;59.60;27.90;;;;;;;;;;4977264;28;20054;-58
2022/12/19 10:39:58;;;;;;;54.92;24.75;;;;;;;;;;4978796;28;20084;-58
2022/12/19 10:42:30;;;;;;;61.13;29.15;;;;;;;;;;4992356;28;20023;-58
2022/12/19 10:44:56;;;;;;;58.53;25.30;;;;;;;;;;4995753;28;20042;-59
2022/12/19 10:47:22;;;;;;;53.97;23.13;;;;;;;;;;4991107;28;20508;-59
2022/12/19 10:49:48;;;;;;;53.85;23.75;;;;;;;;;;4962033;28;21146;-60
2022/12/19 10:52:13;;;;;;;51.08;24.02;;;;;;;;;;4974139;28;20052;-59
2022/12/19 10:54:40;;;;;;;55.70;24.38;;;;;;;;;;4991706;28;20794;-60
2022/12/19 10:57:21;;;;;;;52.85;23.50;;;;;;;;;;4991326;28;20088;-59
2022/12/19 10:59:53;;;;;;;62.80;27.15;;;;;;;;;;4991172;28;20151;-60
2022/12/19 11:02:28;;;;;;;54.67;24.17;;;;;;;;;;4975642;28;20451;-59
2022/12/19 11:04:53;;;;;;;56.78;25.48;;;;;;;;;;4989859;28;20034;-60
2022/12/19 11:07:20;;;;;;;54.92;24.67;;;;;;;;;;4991904;28;20030;-58
2022/12/19 11:09:45;;;;;;;52.45;25.05;;;;;;;;;;4992200;28;20435;-60
2022/12/19 11:12:12;;;;;;;53.55;26.70;;;;;;;;;;4994568;28;20088;-59
2022/12/19 11:14:40;;;;;;;52.13;24.20;;;;;;;;;;4975997;28;20037;-59
2022/12/19 11:17:05;;;;;;;;;;;;;;;;;;4980753;28;20077;-59
2022/12/19 11:19:33;;;;;;;52.50;23.33;;;;;;;;;;4990431;28;20020;-61
2022/12/19 11:22:01;;;;;;;59.88;25.90;;;;;;;;;;4993970;28;20357;-59
2022/12/19 11:24:46;;;;;;;57.45;27.60;;;;;;;;;;4991773;28;20472;-60
2022/12/19 11:27:29;;;;;;;58.08;27.15;;;;;;;;;;4984606;28;20042;-59
2022/12/19 11:29:56;;;;;;;52.70;25.55;;;;;;;;;;4990550;28;20030;-60
2022/12/19 11:32:41;;;;;;;46.87;22.70;;;;;;;;;;4990132;28;20132;-60
2022/12/19 11:35:09;;;;;;;48.97;24.88;;;;;;;;;;4989914;28;20654;-60
2022/12/19 11:37:37;;;;;;;44.75;22.25;;;;;;;;;;4992001;28;20088;-60
2022/12/19 11:40:06;;;;;;;48.80;23.80;;;;;;;;;;4991540;28;20042;-59
2022/12/19 11:42:38;;;;;;;48.72;23.38;;;;;;;;;;4994051;28;20534;-59
2022/12/19 11:45:15;;;;;;;49.35;25.17;;;;;;;;;;4993431;28;20077;-60
2022/12/19 11:47:44;;;;;;;51.05;25.88;;;;;;;;;;4994603;28;20040;-59
2022/12/19 11:50:09;;;;;;;48.05;25.27;;;;;;;;;;4977505;28;20030;-59
2022/12/19 11:52:39;;;;;;;46.97;24.38;;;;;;;;;;4992372;28;20026;-60
2022/12/19 11:55:06;;;;;;;47.35;23.75;;;;;;;;;;4990374;28;20076;-60
2022/12/19 11:57:32;;;;;;;;;;;;;;;;;;4993092;28;20030;-59
2022/12/19 11:59:57;;;;;;;48.08;22.83;;;;;;;;;;4991861;28;20315;-60
2022/12/19 12:02:39;;;;;;;42.40;21.60;;;;;;;;;;4979837;28;20025;-60
2022/12/19 12:05:04;;;;;;;45.92;22.10;;;;;;;;;;4995179;28;20030;-59
2022/12/19 12:07:33;;;;;;;37.67;20.00;;;;;;;;;;4994541;28;20061;-60
2022/12/19 12:10:01;;;;;;;44.58;21.88;;;;;;;;;;4995044;28;20081;-59
2022/12/19 12:12:26;;;;;;;43.40;20.75;;;;;;;;;;4985268;28;20037;-59
2022/12/19 12:14:58;;;;;;;43.17;20.65;;;;;;;;;;4995527;28;20041;-59
2022/12/19 12:17:33;;;;;;;39.92;19.38;;;;;;;;;;4994486;28;20396;-59
2022/12/19 12:20:07;;;;;;;44.20;21.05;;;;;;;;;;4977664;28;20053;-59
2022/12/19 12:22:32;;;;;;;43.88;22.88;;;;;;;;;;4995710;28;20785;-60
2022/12/19 12:25:13;;;;;;;42.70;20.67;;;;;;;;;;4978584;28;20037;-60
2022/12/19 12:27:54;;;;;;;45.85;22.55;;;;;;;;;;4992754;28;20026;-58
2022/12/19 12:30:20;;;;;;;47.75;22.48;;;;;;;;;;4996400;28;20299;-60
2022/12/19 12:32:46;;;;;;;49.78;22.92;;;;;;;;;;4997215;28;20824;-59
2022/12/19 12:35:14;;;;;;;49.20;23.48;;;;;;;;;;4996784;28;20067;-59
2022/12/19 12:37:58;;;;;;;44.88;22.00;;;;;;;;;;4985775;28;20030;-59
2022/12/19 12:40:36;;;;;;;41.60;20.63;;;;;;;;;;4995387;28;20033;-59
2022/12/19 12:43:24;;;;;;;47.85;24.42;;;;;;;;;;4995068;28;20473;-59
2022/12/19 12:45:49;;;;;;;51.33;24.25;;;;;;;;;;4997147;28;20036;-59
2022/12/19 12:48:37;;;;;;;50.63;28.35;;;;;;;;;;4993213;28;20026;-59
2022/12/19 12:51:03;;;;;;;57.85;28.92;;;;;;;;;;4997206;28;20885;-59
2022/12/19 12:53:33;;;;;;;50.45;26.48;;;;;;;;;;4992125;28;20037;-59
2022/12/19 12:55:59;;;;;;;55.63;29.30;;;;;;;;;;4995270;28;20552;-59
2022/12/19 12:58:43;;;;;;;54.17;30.45;;;;;;;;;;4994757;28;20114;-59
2022/12/19 13:01:11;;;;;;;55.50;29.67;;;;;;;;;;4993992;28;20048;-59
2022/12/19 13:03:39;;;;;;;59.08;31.05;;;;;;;;;;4980478;28;20026;-57
2022/12/19 13:06:23;;;;;;;55.92;29.70;;;;;;;;;;4986436;28;20049;-59
2022/12/19 13:08:49;;;;;;;62.85;33.15;;;;;;;;;;4998130;28;20472;-59
2022/12/19 13:14:36;;;;;;;51.92;27.80;;;;;;;;;;4992130;28;20034;-60
2022/12/19 13:17:01;;;;;;;48.22;24.85;;;;;;;;;;4996493;28;20066;-59
2022/12/19 13:19:26;;;;;;;42.10;21.63;;;;;;;;;;4993193;28;20068;-59
2022/12/19 13:22:04;;;;;;;43.42;21.95;;;;;;;;;;4985787;28;20553;-60
2022/12/19 13:24:40;;;;;;;42.28;23.58;;;;;;;;;;5001305;28;20041;-60
2022/12/19 13:27:17;;;;;;;50.92;25.70;;;;;;;;;;4999047;28;20031;-59
2022/12/19 13:29:52;;;;;;;48.70;24.02;;;;;;;;;;4999797;28;20042;-59
2022/12/19 13:32:21;;;;;;;54.38;25.17;;;;;;;;;;4999498;28;20540;-59
2022/12/19 13:34:55;;;;;;;43.90;23.83;;;;;;;;;;4977832;28;20042;-58
2022/12/19 13:37:31;;;;;;;45.83;23.73;;;;;;;;;;4991640;28;20100;-59
2022/12/19 13:39:56;;;;;;;43.75;23.70;;;;;;;;;;5002062;28;20109;-59
2022/12/19 13:45:29;;;;;;;37.22;19.92;;;;;;;;;;4994101;28;20030;-59
2022/12/19 13:47:56;;;;;;;42.00;20.88;;;;;;;;;;4998998;28;20041;-59
2022/12/19 13:50:25;;;;;;;37.53;20.63;;;;;;;;;;4999209;28;20038;-58
2022/12/19 13:52:51;;;;;;;39.33;20.63;;;;;;;;;;4998941;28;20065;-58
2022/12/19 13:55:16;;;;;;;38.00;20.90;;;;;;;;;;4994436;28;20098;-58
2022/12/19 13:57:42;;;;;;;45.85;23.30;;;;;;;;;;4977607;28;20026;-58
2022/12/19 14:00:09;;;;;;;41.03;20.20;;;;;;;;;;4960482;28;20216;-58
2022/12/19 14:02:39;;;;;;;42.88;20.92;;;;;;;;;;4978720;28;20092;-58
2022/12/19 14:05:16;;;;;;;43.28;21.30;;;;;;;;;;5004876;28;20095;-60
2022/12/19 14:07:41;;;;;;;41.42;21.50;;;;;;;;;;5001555;28;20026;-59
2022/12/19 14:10:13;;;;;;;40.47;21.80;;;;;;;;;;5002190;28;20089;-60
2022/12/19 14:15:24;;;;;;;49.40;26.40;;;;;;;;;;4994007;28;20392;-60
2022/12/19 14:17:50;;;;;;;48.38;26.50;;;;;;;;;;4995337;28;20026;-59
2022/12/19 14:20:20;;;;;;;55.97;26.60;;;;;;;;;;4989804;28;20391;-59
2022/12/19 14:22:45;;;;;;;42.50;22.65;;;;;;;;;;4991537;28;20045;-60
2022/12/19 14:25:10;;;;;;;45.00;21.13;;;;;;;;;;4992385;28;20041;-60
2022/12/19 14:27:39;;;;;;;45.95;22.50;;;;;;;;;;4978012;28;20034;-59
2022/12/19 14:30:06;;;;;;;40.83;21.30;;;;;;;;;;4991894;28;20057;-59
2022/12/19 14:32:33;;;;;;;39.50;20.00;;;;;;;;;;4992808;28;20030;-58
2022/12/19 14:35:05;;;;;;;53.15;25.35;;;;;;;;;;4991652;28;20215;-58
2022/12/19 14:37:32;;;;;;;46.70;23.20;;;;;;;;;;4993988;28;20034;-59
2022/12/19 14:40:06;;;;;;;49.40;22.88;;;;;;;;;;4993936;28;20029;-58